aviador You're here:

KOAJ Decoded Metar

JACKSONVILLE in NC, USA
Report Time2017-11-25 07:30:00
UTC Time2017-11-25 07:40:07
Flight Rules vfr VFR
WindCalm
Visibility9999 m
Phenomena:N/A
Clouds:Few 024 Hf
Scattered 032 Hf
Expected CloudBase > 800 ft AGL from Temp-Dew spread
CeilingNone
Temp06°C (ISA -9)
Dew Point04°C (87% RH)
AAT4.7°C
QNH1014 hPa
Density Alt-892 ft
Elevation95 ft
Report Wrong Elevation
Raw Report
KOAJ 250730Z AUTO 00000KT 10SM FEW024 SCT032 06/04 A2993 RMK
AO2=

Extra information for KOAJ:More info

Metar Taf Metar & Taf Last 4 Metars F.Rules Stats Wind Profile Meteogram Temp Stats Airport Information Weather charts Add Link Nearby VenuesMetar ALERT Operation Metar Decoded Social comments

AIRNAV info for KOAJ